sensor_id;sensor_type;location;lat;lon;timestamp;P1;durP1;ratioP1;P2;durP2;ratioP2
84353;SDS011;74538;43.522;1.516;2024-03-02T00:00:43;7.63;;;4.83;;
84353;SDS011;74538;43.522;1.516;2024-03-02T00:03:08;6.78;;;4.85;;
84353;SDS011;74538;43.522;1.516;2024-03-02T00:05:39;7.68;;;5.30;;
84353;SDS011;74538;43.522;1.516;2024-03-02T00:08:04;7.97;;;4.90;;
84353;SDS011;74538;43.522;1.516;2024-03-02T00:10:36;7.30;;;3.92;;
84353;SDS011;74538;43.522;1.516;2024-03-02T00:13:05;7.47;;;5.00;;
84353;SDS011;74538;43.522;1.516;2024-03-02T00:15:40;6.20;;;4.40;;
84353;SDS011;74538;43.522;1.516;2024-03-02T00:18:18;7.85;;;4.82;;
84353;SDS011;74538;43.522;1.516;2024-03-02T00:20:44;7.28;;;4.65;;
84353;SDS011;74538;43.522;1.516;2024-03-02T00:23:11;6.50;;;4.10;;
84353;SDS011;74538;43.522;1.516;2024-03-02T00:25:44;6.53;;;4.50;;
84353;SDS011;74538;43.522;1.516;2024-03-02T00:28:21;7.80;;;4.38;;
84353;SDS011;74538;43.522;1.516;2024-03-02T00:33:23;7.50;;;4.60;;
84353;SDS011;74538;43.522;1.516;2024-03-02T00:35:51;6.72;;;4.50;;
84353;SDS011;74538;43.522;1.516;2024-03-02T00:38:16;7.73;;;4.53;;
84353;SDS011;74538;43.522;1.516;2024-03-02T00:40:42;6.40;;;4.13;;
84353;SDS011;74538;43.522;1.516;2024-03-02T00:45:48;6.30;;;4.20;;
84353;SDS011;74538;43.522;1.516;2024-03-02T00:48:15;7.00;;;4.73;;
84353;SDS011;74538;43.522;1.516;2024-03-02T00:50:41;6.75;;;4.68;;
84353;SDS011;74538;43.522;1.516;2024-03-02T00:53:09;6.70;;;4.67;;
84353;SDS011;74538;43.522;1.516;2024-03-02T00:55:37;8.73;;;4.55;;
84353;SDS011;74538;43.522;1.516;2024-03-02T00:58:02;7.10;;;4.82;;
84353;SDS011;74538;43.522;1.516;2024-03-02T01:00:28;6.80;;;4.50;;
84353;SDS011;74538;43.522;1.516;2024-03-02T01:02:53;6.30;;;4.60;;
84353;SDS011;74538;43.522;1.516;2024-03-02T01:05:19;7.70;;;4.30;;
84353;SDS011;74538;43.522;1.516;2024-03-02T01:07:45;8.07;;;4.63;;
84353;SDS011;74538;43.522;1.516;2024-03-02T01:10:10;6.73;;;4.17;;
84353;SDS011;74538;43.522;1.516;2024-03-02T01:12:36;6.63;;;4.25;;
84353;SDS011;74538;43.522;1.516;2024-03-02T01:15:02;7.93;;;4.13;;
84353;SDS011;74538;43.522;1.516;2024-03-02T01:17:30;7.18;;;4.38;;
84353;SDS011;74538;43.522;1.516;2024-03-02T01:19:56;6.93;;;4.43;;
84353;SDS011;74538;43.522;1.516;2024-03-02T01:22:22;7.23;;;4.03;;
84353;SDS011;74538;43.522;1.516;2024-03-02T01:24:50;7.32;;;4.55;;
84353;SDS011;74538;43.522;1.516;2024-03-02T01:27:16;6.47;;;4.00;;
84353;SDS011;74538;43.522;1.516;2024-03-02T01:29:42;6.87;;;4.30;;
84353;SDS011;74538;43.522;1.516;2024-03-02T01:32:07;6.40;;;4.40;;
84353;SDS011;74538;43.522;1.516;2024-03-02T01:34:32;7.22;;;4.32;;
84353;SDS011;74538;43.522;1.516;2024-03-02T01:36:58;8.33;;;4.50;;
84353;SDS011;74538;43.522;1.516;2024-03-02T01:39:23;6.67;;;4.37;;
84353;SDS011;74538;43.522;1.516;2024-03-02T01:41:49;6.63;;;4.37;;
84353;SDS011;74538;43.522;1.516;2024-03-02T01:44:14;5.93;;;4.00;;
84353;SDS011;74538;43.522;1.516;2024-03-02T01:46:39;6.97;;;4.25;;
84353;SDS011;74538;43.522;1.516;2024-03-02T01:49:05;6.50;;;3.87;;
84353;SDS011;74538;43.522;1.516;2024-03-02T01:51:31;6.78;;;4.22;;
84353;SDS011;74538;43.522;1.516;2024-03-02T01:53:56;7.30;;;4.10;;
84353;SDS011;74538;43.522;1.516;2024-03-02T01:56:22;7.30;;;4.30;;
84353;SDS011;74538;43.522;1.516;2024-03-02T01:58:47;5.95;;;3.83;;
84353;SDS011;74538;43.522;1.516;2024-03-02T02:01:13;6.17;;;3.83;;
84353;SDS011;74538;43.522;1.516;2024-03-02T02:03:39;6.88;;;4.25;;
84353;SDS011;74538;43.522;1.516;2024-03-02T02:06:05;7.40;;;4.22;;
84353;SDS011;74538;43.522;1.516;2024-03-02T02:08:32;7.10;;;3.90;;
84353;SDS011;74538;43.522;1.516;2024-03-02T02:10:57;7.18;;;4.05;;
84353;SDS011;74538;43.522;1.516;2024-03-02T02:13:23;6.57;;;4.37;;
84353;SDS011;74538;43.522;1.516;2024-03-02T02:15:49;6.53;;;4.00;;
84353;SDS011;74538;43.522;1.516;2024-03-02T02:18:15;6.70;;;4.10;;
84353;SDS011;74538;43.522;1.516;2024-03-02T02:20:40;6.60;;;4.10;;
84353;SDS011;74538;43.522;1.516;2024-03-02T02:23:06;6.60;;;4.07;;
84353;SDS011;74538;43.522;1.516;2024-03-02T02:25:34;7.20;;;4.15;;
84353;SDS011;74538;43.522;1.516;2024-03-02T02:28:00;6.70;;;3.67;;
84353;SDS011;74538;43.522;1.516;2024-03-02T02:30:26;6.50;;;3.83;;
84353;SDS011;74538;43.522;1.516;2024-03-02T02:32:53;5.43;;;3.38;;
84353;SDS011;74538;43.522;1.516;2024-03-02T02:35:19;6.30;;;3.63;;
84353;SDS011;74538;43.522;1.516;2024-03-02T02:37:47;6.27;;;4.20;;
84353;SDS011;74538;43.522;1.516;2024-03-02T02:40:14;6.47;;;3.72;;
84353;SDS011;74538;43.522;1.516;2024-03-02T02:42:40;5.60;;;3.35;;
84353;SDS011;74538;43.522;1.516;2024-03-02T02:45:06;5.57;;;3.80;;
84353;SDS011;74538;43.522;1.516;2024-03-02T02:47:32;6.85;;;3.50;;
84353;SDS011;74538;43.522;1.516;2024-03-02T02:50:00;6.22;;;3.60;;
84353;SDS011;74538;43.522;1.516;2024-03-02T02:52:34;6.72;;;3.70;;
84353;SDS011;74538;43.522;1.516;2024-03-02T02:55:01;6.32;;;3.65;;
84353;SDS011;74538;43.522;1.516;2024-03-02T02:57:28;5.40;;;3.60;;
84353;SDS011;74538;43.522;1.516;2024-03-02T02:59:55;6.50;;;3.60;;
84353;SDS011;74538;43.522;1.516;2024-03-02T03:02:21;6.57;;;3.80;;
84353;SDS011;74538;43.522;1.516;2024-03-02T03:04:46;6.28;;;3.92;;
84353;SDS011;74538;43.522;1.516;2024-03-02T03:07:12;5.97;;;3.57;;
84353;SDS011;74538;43.522;1.516;2024-03-02T03:09:37;6.30;;;3.70;;
84353;SDS011;74538;43.522;1.516;2024-03-02T03:12:04;6.07;;;3.60;;
84353;SDS011;74538;43.522;1.516;2024-03-02T03:14:29;6.40;;;3.20;;
84353;SDS011;74538;43.522;1.516;2024-03-02T03:16:55;5.82;;;3.65;;
84353;SDS011;74538;43.522;1.516;2024-03-02T03:19:20;6.07;;;3.43;;
84353;SDS011;74538;43.522;1.516;2024-03-02T03:21:46;5.77;;;3.13;;
84353;SDS011;74538;43.522;1.516;2024-03-02T03:24:11;5.75;;;3.28;;
84353;SDS011;74538;43.522;1.516;2024-03-02T03:26:37;6.17;;;3.60;;
84353;SDS011;74538;43.522;1.516;2024-03-02T03:29:02;5.60;;;3.30;;
84353;SDS011;74538;43.522;1.516;2024-03-02T03:31:28;4.80;;;2.97;;
84353;SDS011;74538;43.522;1.516;2024-03-02T03:33:54;5.47;;;3.13;;
84353;SDS011;74538;43.522;1.516;2024-03-02T03:36:20;6.10;;;3.40;;
84353;SDS011;74538;43.522;1.516;2024-03-02T03:38:45;5.40;;;2.93;;
84353;SDS011;74538;43.522;1.516;2024-03-02T03:41:10;5.57;;;3.17;;
84353;SDS011;74538;43.522;1.516;2024-03-02T03:43:36;6.23;;;3.03;;
84353;SDS011;74538;43.522;1.516;2024-03-02T03:46:01;5.68;;;3.47;;
84353;SDS011;74538;43.522;1.516;2024-03-02T03:48:27;5.13;;;3.13;;
84353;SDS011;74538;43.522;1.516;2024-03-02T03:50:55;4.90;;;3.13;;
84353;SDS011;74538;43.522;1.516;2024-03-02T03:53:21;5.28;;;2.90;;
84353;SDS011;74538;43.522;1.516;2024-03-02T03:55:47;5.37;;;3.23;;
84353;SDS011;74538;43.522;1.516;2024-03-02T03:58:14;5.22;;;3.20;;
84353;SDS011;74538;43.522;1.516;2024-03-02T04:00:41;5.00;;;2.85;;
84353;SDS011;74538;43.522;1.516;2024-03-02T04:03:07;4.72;;;3.00;;
84353;SDS011;74538;43.522;1.516;2024-03-02T04:05:33;5.63;;;3.00;;
84353;SDS011;74538;43.522;1.516;2024-03-02T04:07:58;5.25;;;3.00;;
84353;SDS011;74538;43.522;1.516;2024-03-02T04:10:25;4.87;;;2.83;;
84353;SDS011;74538;43.522;1.516;2024-03-02T04:12:50;5.30;;;2.83;;
84353;SDS011;74538;43.522;1.516;2024-03-02T04:15:15;5.67;;;3.13;;
84353;SDS011;74538;43.522;1.516;2024-03-02T04:17:41;6.37;;;3.30;;
84353;SDS011;74538;43.522;1.516;2024-03-02T04:20:06;5.00;;;3.10;;
84353;SDS011;74538;43.522;1.516;2024-03-02T04:22:33;6.07;;;3.03;;
84353;SDS011;74538;43.522;1.516;2024-03-02T04:25:00;4.57;;;2.75;;
84353;SDS011;74538;43.522;1.516;2024-03-02T04:27:25;4.70;;;3.10;;
84353;SDS011;74538;43.522;1.516;2024-03-02T04:29:51;5.00;;;2.70;;
84353;SDS011;74538;43.522;1.516;2024-03-02T04:32:16;4.83;;;2.70;;
84353;SDS011;74538;43.522;1.516;2024-03-02T04:34:42;4.70;;;2.72;;
84353;SDS011;74538;43.522;1.516;2024-03-02T04:37:07;4.50;;;2.67;;
84353;SDS011;74538;43.522;1.516;2024-03-02T04:39:34;4.57;;;2.92;;
84353;SDS011;74538;43.522;1.516;2024-03-02T04:42:00;5.17;;;2.80;;
84353;SDS011;74538;43.522;1.516;2024-03-02T04:44:26;5.43;;;3.00;;
84353;SDS011;74538;43.522;1.516;2024-03-02T04:46:51;6.47;;;3.03;;
84353;SDS011;74538;43.522;1.516;2024-03-02T04:49:17;4.80;;;2.70;;
84353;SDS011;74538;43.522;1.516;2024-03-02T04:51:42;4.87;;;2.93;;
84353;SDS011;74538;43.522;1.516;2024-03-02T04:54:07;5.63;;;2.92;;
84353;SDS011;74538;43.522;1.516;2024-03-02T04:56:33;5.10;;;2.63;;
84353;SDS011;74538;43.522;1.516;2024-03-02T04:59:09;5.10;;;2.53;;
84353;SDS011;74538;43.522;1.516;2024-03-02T05:01:34;5.40;;;2.83;;
84353;SDS011;74538;43.522;1.516;2024-03-02T05:04:00;4.17;;;2.53;;
84353;SDS011;74538;43.522;1.516;2024-03-02T05:06:25;5.38;;;2.80;;
84353;SDS011;74538;43.522;1.516;2024-03-02T05:08:50;4.90;;;2.70;;
84353;SDS011;74538;43.522;1.516;2024-03-02T05:11:16;4.40;;;2.80;;
84353;SDS011;74538;43.522;1.516;2024-03-02T05:14:07;5.60;;;2.92;;
84353;SDS011;74538;43.522;1.516;2024-03-02T05:16:33;5.65;;;2.60;;
84353;SDS011;74538;43.522;1.516;2024-03-02T05:18:59;4.93;;;2.63;;
84353;SDS011;74538;43.522;1.516;2024-03-02T05:21:25;4.68;;;2.70;;
84353;SDS011;74538;43.522;1.516;2024-03-02T05:23:50;4.17;;;2.50;;
84353;SDS011;74538;43.522;1.516;2024-03-02T05:26:15;4.27;;;2.53;;
84353;SDS011;74538;43.522;1.516;2024-03-02T05:28:41;5.53;;;2.63;;
84353;SDS011;74538;43.522;1.516;2024-03-02T05:31:09;4.90;;;2.50;;
84353;SDS011;74538;43.522;1.516;2024-03-02T05:33:37;4.88;;;2.72;;
84353;SDS011;74538;43.522;1.516;2024-03-02T05:36:03;4.53;;;2.60;;
84353;SDS011;74538;43.522;1.516;2024-03-02T05:38:29;5.47;;;2.50;;
84353;SDS011;74538;43.522;1.516;2024-03-02T05:40:54;4.77;;;2.57;;
84353;SDS011;74538;43.522;1.516;2024-03-02T05:43:20;5.33;;;2.70;;
84353;SDS011;74538;43.522;1.516;2024-03-02T05:45:45;3.80;;;2.40;;
84353;SDS011;74538;43.522;1.516;2024-03-02T05:48:11;6.30;;;2.65;;
84353;SDS011;74538;43.522;1.516;2024-03-02T05:50:36;4.07;;;2.23;;
84353;SDS011;74538;43.522;1.516;2024-03-02T05:53:02;4.63;;;2.47;;
84353;SDS011;74538;43.522;1.516;2024-03-02T05:55:27;4.60;;;2.40;;
84353;SDS011;74538;43.522;1.516;2024-03-02T05:57:53;4.53;;;2.30;;
84353;SDS011;74538;43.522;1.516;2024-03-02T06:00:41;4.63;;;2.60;;
84353;SDS011;74538;43.522;1.516;2024-03-02T06:03:06;4.72;;;2.40;;
84353;SDS011;74538;43.522;1.516;2024-03-02T06:05:32;4.37;;;2.50;;
84353;SDS011;74538;43.522;1.516;2024-03-02T06:07:58;4.28;;;2.40;;
84353;SDS011;74538;43.522;1.516;2024-03-02T06:10:23;4.00;;;2.57;;
84353;SDS011;74538;43.522;1.516;2024-03-02T06:12:49;6.03;;;2.90;;
84353;SDS011;74538;43.522;1.516;2024-03-02T06:15:14;3.70;;;2.30;;
84353;SDS011;74538;43.522;1.516;2024-03-02T06:17:40;3.80;;;2.20;;
84353;SDS011;74538;43.522;1.516;2024-03-02T06:20:05;5.77;;;2.80;;
84353;SDS011;74538;43.522;1.516;2024-03-02T06:22:33;4.13;;;2.53;;
84353;SDS011;74538;43.522;1.516;2024-03-02T06:24:58;5.23;;;2.60;;
84353;SDS011;74538;43.522;1.516;2024-03-02T06:27:24;4.53;;;2.53;;
84353;SDS011;74538;43.522;1.516;2024-03-02T06:29:49;4.97;;;2.70;;
84353;SDS011;74538;43.522;1.516;2024-03-02T06:32:16;5.20;;;2.53;;
84353;SDS011;74538;43.522;1.516;2024-03-02T06:34:42;4.50;;;2.60;;
84353;SDS011;74538;43.522;1.516;2024-03-02T06:37:07;4.38;;;2.53;;
84353;SDS011;74538;43.522;1.516;2024-03-02T06:39:32;4.10;;;2.50;;
84353;SDS011;74538;43.522;1.516;2024-03-02T06:41:59;4.45;;;2.40;;
84353;SDS011;74538;43.522;1.516;2024-03-02T06:44:25;4.20;;;2.40;;
84353;SDS011;74538;43.522;1.516;2024-03-02T06:46:50;4.82;;;2.65;;
84353;SDS011;74538;43.522;1.516;2024-03-02T06:49:16;4.20;;;2.27;;
84353;SDS011;74538;43.522;1.516;2024-03-02T06:51:43;4.28;;;2.35;;
84353;SDS011;74538;43.522;1.516;2024-03-02T06:54:09;4.88;;;2.60;;
84353;SDS011;74538;43.522;1.516;2024-03-02T06:56:34;5.47;;;2.60;;
84353;SDS011;74538;43.522;1.516;2024-03-02T06:59:00;4.07;;;2.13;;
84353;SDS011;74538;43.522;1.516;2024-03-02T07:01:25;4.17;;;2.47;;
84353;SDS011;74538;43.522;1.516;2024-03-02T07:03:51;4.45;;;2.63;;
84353;SDS011;74538;43.522;1.516;2024-03-02T07:06:17;4.27;;;2.50;;
84353;SDS011;74538;43.522;1.516;2024-03-02T07:08:42;5.53;;;2.75;;
84353;SDS011;74538;43.522;1.516;2024-03-02T07:11:08;4.87;;;2.60;;
84353;SDS011;74538;43.522;1.516;2024-03-02T07:13:33;4.10;;;2.40;;
84353;SDS011;74538;43.522;1.516;2024-03-02T07:15:59;5.22;;;2.75;;
84353;SDS011;74538;43.522;1.516;2024-03-02T07:18:28;4.47;;;2.85;;
84353;SDS011;74538;43.522;1.516;2024-03-02T07:20:53;5.10;;;2.65;;
84353;SDS011;74538;43.522;1.516;2024-03-02T07:23:20;4.27;;;2.60;;
84353;SDS011;74538;43.522;1.516;2024-03-02T07:25:49;4.28;;;2.53;;
84353;SDS011;74538;43.522;1.516;2024-03-02T07:28:15;5.18;;;2.90;;
84353;SDS011;74538;43.522;1.516;2024-03-02T07:30:41;5.80;;;2.65;;
84353;SDS011;74538;43.522;1.516;2024-03-02T07:33:06;4.57;;;2.33;;
84353;SDS011;74538;43.522;1.516;2024-03-02T07:35:32;3.90;;;2.17;;
84353;SDS011;74538;43.522;1.516;2024-03-02T07:37:57;4.47;;;2.53;;
84353;SDS011;74538;43.522;1.516;2024-03-02T07:40:23;4.38;;;2.13;;
84353;SDS011;74538;43.522;1.516;2024-03-02T07:42:49;5.50;;;2.95;;
84353;SDS011;74538;43.522;1.516;2024-03-02T07:45:14;4.77;;;2.40;;
84353;SDS011;74538;43.522;1.516;2024-03-02T07:47:40;4.90;;;2.58;;
84353;SDS011;74538;43.522;1.516;2024-03-02T07:50:06;4.77;;;2.43;;
84353;SDS011;74538;43.522;1.516;2024-03-02T07:52:32;5.25;;;2.80;;
84353;SDS011;74538;43.522;1.516;2024-03-02T07:54:58;4.57;;;2.40;;
84353;SDS011;74538;43.522;1.516;2024-03-02T07:57:24;4.40;;;2.80;;
84353;SDS011;74538;43.522;1.516;2024-03-02T07:59:49;4.82;;;2.58;;
84353;SDS011;74538;43.522;1.516;2024-03-02T08:02:15;6.10;;;2.50;;
84353;SDS011;74538;43.522;1.516;2024-03-02T08:04:41;4.70;;;2.63;;
84353;SDS011;74538;43.522;1.516;2024-03-02T08:07:06;4.88;;;2.25;;
84353;SDS011;74538;43.522;1.516;2024-03-02T08:09:32;3.90;;;2.40;;
84353;SDS011;74538;43.522;1.516;2024-03-02T08:11:57;4.33;;;2.40;;
84353;SDS011;74538;43.522;1.516;2024-03-02T08:14:23;5.05;;;2.75;;
84353;SDS011;74538;43.522;1.516;2024-03-02T08:16:49;4.40;;;2.50;;
84353;SDS011;74538;43.522;1.516;2024-03-02T08:19:14;4.63;;;2.70;;
84353;SDS011;74538;43.522;1.516;2024-03-02T08:21:40;4.47;;;2.42;;
84353;SDS011;74538;43.522;1.516;2024-03-02T08:24:06;6.37;;;2.80;;
84353;SDS011;74538;43.522;1.516;2024-03-02T08:26:32;4.93;;;2.45;;
84353;SDS011;74538;43.522;1.516;2024-03-02T08:28:58;4.70;;;2.30;;
84353;SDS011;74538;43.522;1.516;2024-03-02T08:31:24;4.32;;;2.53;;
84353;SDS011;74538;43.522;1.516;2024-03-02T08:33:49;5.10;;;2.37;;
84353;SDS011;74538;43.522;1.516;2024-03-02T08:36:15;5.10;;;2.37;;
84353;SDS011;74538;43.522;1.516;2024-03-02T08:38:40;4.47;;;2.20;;
84353;SDS011;74538;43.522;1.516;2024-03-02T08:41:06;4.57;;;2.37;;
84353;SDS011;74538;43.522;1.516;2024-03-02T08:43:32;5.88;;;2.42;;
84353;SDS011;74538;43.522;1.516;2024-03-02T08:45:58;3.90;;;2.25;;
84353;SDS011;74538;43.522;1.516;2024-03-02T08:48:23;3.77;;;2.10;;
84353;SDS011;74538;43.522;1.516;2024-03-02T08:50:49;4.93;;;2.33;;
84353;SDS011;74538;43.522;1.516;2024-03-02T08:53:14;4.72;;;2.30;;
84353;SDS011;74538;43.522;1.516;2024-03-02T08:55:44;3.97;;;1.90;;
84353;SDS011;74538;43.522;1.516;2024-03-02T08:58:10;3.55;;;2.13;;
84353;SDS011;74538;43.522;1.516;2024-03-02T09:00:36;4.63;;;2.40;;
84353;SDS011;74538;43.522;1.516;2024-03-02T09:03:01;4.43;;;2.10;;
84353;SDS011;74538;43.522;1.516;2024-03-02T09:05:27;5.37;;;2.37;;
84353;SDS011;74538;43.522;1.516;2024-03-02T09:07:52;4.10;;;2.20;;
84353;SDS011;74538;43.522;1.516;2024-03-02T09:10:18;4.88;;;2.00;;
84353;SDS011;74538;43.522;1.516;2024-03-02T09:12:43;4.17;;;2.40;;
84353;SDS011;74538;43.522;1.516;2024-03-02T09:15:08;4.23;;;2.30;;
84353;SDS011;74538;43.522;1.516;2024-03-02T09:17:34;3.90;;;2.30;;
84353;SDS011;74538;43.522;1.516;2024-03-02T09:19:59;4.38;;;2.45;;
84353;SDS011;74538;43.522;1.516;2024-03-02T09:22:25;4.07;;;2.10;;
84353;SDS011;74538;43.522;1.516;2024-03-02T09:24:50;4.77;;;2.10;;
84353;SDS011;74538;43.522;1.516;2024-03-02T09:27:16;9.07;;;2.50;;
84353;SDS011;74538;43.522;1.516;2024-03-02T09:29:41;5.07;;;2.10;;
84353;SDS011;74538;43.522;1.516;2024-03-02T09:32:07;4.18;;;2.17;;
84353;SDS011;74538;43.522;1.516;2024-03-02T09:34:33;3.83;;;1.93;;
84353;SDS011;74538;43.522;1.516;2024-03-02T09:36:59;4.43;;;2.30;;
84353;SDS011;74538;43.522;1.516;2024-03-02T09:39:24;4.40;;;2.08;;
84353;SDS011;74538;43.522;1.516;2024-03-02T09:41:50;4.37;;;2.27;;
84353;SDS011;74538;43.522;1.516;2024-03-02T09:44:16;5.53;;;2.47;;
84353;SDS011;74538;43.522;1.516;2024-03-02T09:46:42;3.90;;;2.20;;
84353;SDS011;74538;43.522;1.516;2024-03-02T09:49:09;4.93;;;2.10;;
84353;SDS011;74538;43.522;1.516;2024-03-02T09:51:37;4.15;;;1.90;;
84353;SDS011;74538;43.522;1.516;2024-03-02T09:54:03;3.58;;;1.70;;
84353;SDS011;74538;43.522;1.516;2024-03-02T09:56:30;3.90;;;1.98;;
84353;SDS011;74538;43.522;1.516;2024-03-02T09:58:55;4.53;;;2.03;;
84353;SDS011;74538;43.522;1.516;2024-03-02T10:01:21;4.40;;;1.80;;
84353;SDS011;74538;43.522;1.516;2024-03-02T10:03:47;5.43;;;2.07;;
84353;SDS011;74538;43.522;1.516;2024-03-02T10:06:24;6.65;;;2.30;;
84353;SDS011;74538;43.522;1.516;2024-03-02T10:08:51;5.45;;;2.13;;
84353;SDS011;74538;43.522;1.516;2024-03-02T10:11:38;4.53;;;2.00;;
84353;SDS011;74538;43.522;1.516;2024-03-02T10:16:36;4.33;;;2.13;;
84353;SDS011;74538;43.522;1.516;2024-03-02T10:21:47;4.38;;;1.70;;
84353;SDS011;74538;43.522;1.516;2024-03-02T10:24:14;4.45;;;1.92;;
84353;SDS011;74538;43.522;1.516;2024-03-02T10:26:40;4.68;;;2.08;;
84353;SDS011;74538;43.522;1.516;2024-03-02T10:29:07;4.37;;;2.03;;
84353;SDS011;74538;43.522;1.516;2024-03-02T10:31:33;3.50;;;1.63;;
84353;SDS011;74538;43.522;1.516;2024-03-02T10:34:00;4.47;;;2.03;;
84353;SDS011;74538;43.522;1.516;2024-03-02T10:36:27;5.25;;;2.20;;
84353;SDS011;74538;43.522;1.516;2024-03-02T10:38:53;5.25;;;2.00;;
84353;SDS011;74538;43.522;1.516;2024-03-02T10:41:26;4.97;;;2.17;;
84353;SDS011;74538;43.522;1.516;2024-03-02T10:43:54;5.80;;;2.35;;
84353;SDS011;74538;43.522;1.516;2024-03-02T10:46:26;4.63;;;2.08;;
84353;SDS011;74538;43.522;1.516;2024-03-02T10:48:54;6.70;;;2.33;;
84353;SDS011;74538;43.522;1.516;2024-03-02T10:51:20;4.07;;;1.80;;
84353;SDS011;74538;43.522;1.516;2024-03-02T10:53:45;5.03;;;1.80;;
84353;SDS011;74538;43.522;1.516;2024-03-02T10:56:11;4.53;;;2.10;;
84353;SDS011;74538;43.522;1.516;2024-03-02T10:58:47;5.15;;;2.10;;
84353;SDS011;74538;43.522;1.516;2024-03-02T11:01:20;4.20;;;1.90;;
84353;SDS011;74538;43.522;1.516;2024-03-02T11:03:45;8.38;;;2.10;;
84353;SDS011;74538;43.522;1.516;2024-03-02T11:06:12;4.38;;;1.83;;
84353;SDS011;74538;43.522;1.516;2024-03-02T11:08:38;5.97;;;2.07;;
84353;SDS011;74538;43.522;1.516;2024-03-02T11:11:11;3.67;;;1.67;;
84353;SDS011;74538;43.522;1.516;2024-03-02T11:13:41;3.78;;;1.80;;
84353;SDS011;74538;43.522;1.516;2024-03-02T11:16:13;3.65;;;1.60;;
84353;SDS011;74538;43.522;1.516;2024-03-02T11:18:49;6.53;;;1.95;;
84353;SDS011;74538;43.522;1.516;2024-03-02T11:21:15;5.40;;;2.07;;
84353;SDS011;74538;43.522;1.516;2024-03-02T11:23:42;5.00;;;2.10;;
84353;SDS011;74538;43.522;1.516;2024-03-02T11:26:19;4.97;;;2.03;;
84353;SDS011;74538;43.522;1.516;2024-03-02T11:28:46;5.13;;;1.90;;
84353;SDS011;74538;43.522;1.516;2024-03-02T11:31:12;5.20;;;1.90;;
84353;SDS011;74538;43.522;1.516;2024-03-02T11:33:37;4.95;;;1.60;;
84353;SDS011;74538;43.522;1.516;2024-03-02T11:36:03;5.30;;;1.53;;
84353;SDS011;74538;43.522;1.516;2024-03-02T11:38:32;4.88;;;2.05;;
84353;SDS011;74538;43.522;1.516;2024-03-02T11:41:02;4.78;;;1.75;;
84353;SDS011;74538;43.522;1.516;2024-03-02T11:43:32;3.97;;;1.80;;
84353;SDS011;74538;43.522;1.516;2024-03-02T11:46:03;4.30;;;1.80;;
84353;SDS011;74538;43.522;1.516;2024-03-02T11:48:32;5.50;;;2.10;;
84353;SDS011;74538;43.522;1.516;2024-03-02T11:50:58;5.90;;;2.17;;
84353;SDS011;74538;43.522;1.516;2024-03-02T11:53:25;4.90;;;2.10;;
84353;SDS011;74538;43.522;1.516;2024-03-02T11:55:52;4.53;;;1.80;;
84353;SDS011;74538;43.522;1.516;2024-03-02T11:58:20;6.03;;;2.00;;
84353;SDS011;74538;43.522;1.516;2024-03-02T12:00:52;5.70;;;2.00;;
84353;SDS011;74538;43.522;1.516;2024-03-02T12:03:18;4.68;;;1.67;;
84353;SDS011;74538;43.522;1.516;2024-03-02T12:05:48;5.10;;;2.13;;
84353;SDS011;74538;43.522;1.516;2024-03-02T12:08:14;5.93;;;2.03;;
84353;SDS011;74538;43.522;1.516;2024-03-02T12:10:40;5.68;;;1.75;;
84353;SDS011;74538;43.522;1.516;2024-03-02T12:13:06;4.47;;;1.80;;
84353;SDS011;74538;43.522;1.516;2024-03-02T12:15:33;4.63;;;1.75;;
84353;SDS011;74538;43.522;1.516;2024-03-02T12:18:00;5.18;;;1.88;;
84353;SDS011;74538;43.522;1.516;2024-03-02T12:20:27;4.60;;;2.17;;
84353;SDS011;74538;43.522;1.516;2024-03-02T12:22:54;5.72;;;2.13;;
84353;SDS011;74538;43.522;1.516;2024-03-02T12:25:23;5.47;;;1.80;;
84353;SDS011;74538;43.522;1.516;2024-03-02T12:27:53;4.05;;;1.60;;
84353;SDS011;74538;43.522;1.516;2024-03-02T12:30:20;5.68;;;1.73;;
84353;SDS011;74538;43.522;1.516;2024-03-02T12:32:46;6.63;;;2.27;;
84353;SDS011;74538;43.522;1.516;2024-03-02T12:35:12;4.43;;;1.75;;
84353;SDS011;74538;43.522;1.516;2024-03-02T12:37:45;5.05;;;1.85;;
84353;SDS011;74538;43.522;1.516;2024-03-02T12:40:12;4.43;;;1.98;;
84353;SDS011;74538;43.522;1.516;2024-03-02T12:42:39;4.95;;;2.13;;
84353;SDS011;74538;43.522;1.516;2024-03-02T12:45:08;5.27;;;1.60;;
84353;SDS011;74538;43.522;1.516;2024-03-02T12:47:34;5.63;;;2.03;;
84353;SDS011;74538;43.522;1.516;2024-03-02T12:50:00;5.20;;;2.08;;
84353;SDS011;74538;43.522;1.516;2024-03-02T12:52:26;3.40;;;1.80;;
84353;SDS011;74538;43.522;1.516;2024-03-02T12:54:51;6.40;;;2.13;;
84353;SDS011;74538;43.522;1.516;2024-03-02T12:57:20;3.80;;;1.70;;
84353;SDS011;74538;43.522;1.516;2024-03-02T12:59:46;5.45;;;1.77;;
84353;SDS011;74538;43.522;1.516;2024-03-02T13:02:19;5.30;;;1.97;;
84353;SDS011;74538;43.522;1.516;2024-03-02T13:04:51;4.35;;;1.90;;
84353;SDS011;74538;43.522;1.516;2024-03-02T13:07:18;5.80;;;2.13;;
84353;SDS011;74538;43.522;1.516;2024-03-02T13:09:45;5.13;;;1.95;;
84353;SDS011;74538;43.522;1.516;2024-03-02T13:12:11;5.65;;;2.25;;
84353;SDS011;74538;43.522;1.516;2024-03-02T13:14:36;4.20;;;1.93;;
84353;SDS011;74538;43.522;1.516;2024-03-02T13:17:02;5.73;;;2.07;;
84353;SDS011;74538;43.522;1.516;2024-03-02T13:19:30;5.30;;;1.98;;
84353;SDS011;74538;43.522;1.516;2024-03-02T13:21:57;4.82;;;1.90;;
84353;SDS011;74538;43.522;1.516;2024-03-02T13:24:23;5.90;;;2.20;;
84353;SDS011;74538;43.522;1.516;2024-03-02T13:26:53;4.10;;;2.08;;
84353;SDS011;74538;43.522;1.516;2024-03-02T13:29:21;5.80;;;2.07;;
84353;SDS011;74538;43.522;1.516;2024-03-02T13:31:46;4.30;;;1.83;;
84353;SDS011;74538;43.522;1.516;2024-03-02T13:34:12;4.27;;;1.73;;
84353;SDS011;74538;43.522;1.516;2024-03-02T13:36:37;5.60;;;2.10;;
84353;SDS011;74538;43.522;1.516;2024-03-02T13:39:03;5.90;;;2.27;;
84353;SDS011;74538;43.522;1.516;2024-03-02T13:41:31;3.95;;;1.90;;
84353;SDS011;74538;43.522;1.516;2024-03-02T13:43:57;5.28;;;1.90;;
84353;SDS011;74538;43.522;1.516;2024-03-02T13:46:26;4.72;;;2.15;;
84353;SDS011;74538;43.522;1.516;2024-03-02T13:48:51;4.57;;;1.97;;
84353;SDS011;74538;43.522;1.516;2024-03-02T13:51:17;4.33;;;1.90;;
84353;SDS011;74538;43.522;1.516;2024-03-02T13:53:42;5.05;;;2.13;;
84353;SDS011;74538;43.522;1.516;2024-03-02T13:56:08;4.43;;;1.90;;
84353;SDS011;74538;43.522;1.516;2024-03-02T13:58:33;4.17;;;1.90;;
84353;SDS011;74538;43.522;1.516;2024-03-02T14:00:59;4.33;;;1.70;;
84353;SDS011;74538;43.522;1.516;2024-03-02T14:03:24;4.95;;;1.90;;
84353;SDS011;74538;43.522;1.516;2024-03-02T14:05:52;5.82;;;2.10;;
84353;SDS011;74538;43.522;1.516;2024-03-02T14:08:18;4.83;;;2.10;;
84353;SDS011;74538;43.522;1.516;2024-03-02T14:10:43;5.33;;;1.80;;
84353;SDS011;74538;43.522;1.516;2024-03-02T14:13:09;4.03;;;1.70;;
84353;SDS011;74538;43.522;1.516;2024-03-02T14:15:34;6.17;;;2.30;;
84353;SDS011;74538;43.522;1.516;2024-03-02T14:18:03;5.82;;;1.92;;
84353;SDS011;74538;43.522;1.516;2024-03-02T14:20:29;4.00;;;1.90;;
84353;SDS011;74538;43.522;1.516;2024-03-02T14:22:55;4.23;;;1.57;;
84353;SDS011;74538;43.522;1.516;2024-03-02T14:25:20;5.47;;;1.93;;
84353;SDS011;74538;43.522;1.516;2024-03-02T14:27:45;6.73;;;2.13;;
84353;SDS011;74538;43.522;1.516;2024-03-02T14:30:12;4.70;;;2.00;;
84353;SDS011;74538;43.522;1.516;2024-03-02T14:32:38;5.75;;;2.10;;
84353;SDS011;74538;43.522;1.516;2024-03-02T14:35:03;4.53;;;1.73;;
84353;SDS011;74538;43.522;1.516;2024-03-02T14:37:29;3.92;;;1.90;;
84353;SDS011;74538;43.522;1.516;2024-03-02T14:39:54;4.50;;;1.90;;
84353;SDS011;74538;43.522;1.516;2024-03-02T14:42:21;5.68;;;1.70;;
84353;SDS011;74538;43.522;1.516;2024-03-02T14:44:47;5.50;;;2.17;;
84353;SDS011;74538;43.522;1.516;2024-03-02T14:47:12;5.40;;;1.65;;
84353;SDS011;74538;43.522;1.516;2024-03-02T14:49:38;3.87;;;1.80;;
84353;SDS011;74538;43.522;1.516;2024-03-02T14:52:05;3.90;;;1.95;;
84353;SDS011;74538;43.522;1.516;2024-03-02T14:54:31;5.57;;;2.10;;